createdAt,value
2022-10-04T00:01:50.657Z,2.92
2022-10-04T00:04:25.091Z,3.17
2022-10-04T00:06:58.679Z,3.47
2022-10-04T00:09:38.205Z,3.00
2022-10-04T00:12:08.952Z,3.45
2022-10-04T00:14:40.794Z,3.42
2022-10-04T00:17:13.153Z,3.70
2022-10-04T00:19:46.317Z,3.65
2022-10-04T00:22:31.457Z,4.20
2022-10-04T00:25:37.353Z,3.42
2022-10-04T00:28:43.849Z,3.55
2022-10-04T00:31:18.414Z,3.70
2022-10-04T00:33:50.349Z,3.80
2022-10-04T00:36:48.764Z,3.30
2022-10-04T00:39:40.067Z,3.40
2022-10-04T00:42:32.221Z,3.40
2022-10-04T00:45:04.098Z,3.45
2022-10-04T00:47:44.642Z,3.80
2022-10-04T00:50:19.512Z,3.97
2022-10-04T00:52:55.069Z,3.58
2022-10-04T00:55:33.536Z,3.10
2022-10-04T00:58:18.226Z,3.50
2022-10-04T01:00:49.813Z,3.50
2022-10-04T01:03:23.373Z,3.58
2022-10-04T01:06:00.986Z,3.58
2022-10-04T01:08:40.371Z,3.70
2022-10-04T01:11:18.058Z,3.38
2022-10-04T01:13:53.278Z,3.90
2022-10-04T01:16:24.365Z,3.70
2022-10-04T01:18:53.522Z,3.75
2022-10-04T01:21:29.797Z,3.30
2022-10-04T01:24:23.727Z,3.47
2022-10-04T01:26:52.492Z,3.70
2022-10-04T01:29:27.110Z,3.45
2022-10-04T01:32:05.834Z,3.33
2022-10-04T01:34:34.140Z,3.55
2022-10-04T01:37:04.558Z,3.70
2022-10-04T01:39:34.684Z,3.58
2022-10-04T01:42:08.562Z,3.58
2022-10-04T01:44:42.495Z,3.47
2022-10-04T01:47:16.038Z,3.45
2022-10-04T01:49:46.705Z,3.72
2022-10-04T01:52:20.754Z,3.53
2022-10-04T01:54:56.906Z,3.63
2022-10-04T01:57:36.532Z,4.00
2022-10-04T02:00:08.621Z,4.00
2022-10-04T02:02:43.511Z,3.88
2022-10-04T02:05:17.696Z,3.88
2022-10-04T02:07:47.661Z,3.72
2022-10-04T02:10:22.897Z,3.53
2022-10-04T02:12:54.860Z,3.70
2022-10-04T02:15:27.966Z,3.88
2022-10-04T02:17:58.144Z,4.03
2022-10-04T02:20:28.337Z,4.13
2022-10-04T02:23:03.811Z,3.67
2022-10-04T02:25:35.240Z,3.92
2022-10-04T02:28:05.732Z,4.13
2022-10-04T02:30:38.363Z,4.00
2022-10-04T02:33:06.246Z,4.05
2022-10-04T02:35:39.591Z,4.20
2022-10-04T02:38:15.823Z,4.22
2022-10-04T02:40:53.329Z,4.20
2022-10-04T02:43:31.249Z,3.97
2022-10-04T02:46:09.750Z,4.25
2022-10-04T02:48:43.544Z,4.45
2022-10-04T02:51:22.312Z,4.07
2022-10-04T02:54:04.228Z,4.28
2022-10-04T02:56:36.062Z,4.20
2022-10-04T02:59:11.324Z,4.25
2022-10-04T03:01:52.498Z,4.78
2022-10-04T03:04:24.332Z,4.23
2022-10-04T03:06:54.785Z,4.47
2022-10-04T03:09:29.743Z,4.40
2022-10-04T03:12:00.805Z,4.95
2022-10-04T03:14:36.096Z,5.03
2022-10-04T03:17:05.270Z,4.95
2022-10-04T03:19:40.600Z,5.25
2022-10-04T03:22:12.743Z,4.95
2022-10-04T03:24:47.326Z,5.13
2022-10-04T03:27:21.323Z,5.45
2022-10-04T03:29:59.071Z,5.13
2022-10-04T03:32:34.307Z,5.03
2022-10-04T03:35:05.396Z,4.97
2022-10-04T03:37:37.822Z,5.57
2022-10-04T03:40:11.272Z,5.40
2022-10-04T03:42:41.578Z,5.80
2022-10-04T03:45:16.458Z,5.47
2022-10-04T03:47:49.217Z,5.32
2022-10-04T03:50:27.138Z,5.38
2022-10-04T03:52:58.316Z,5.43
2022-10-04T03:55:34.380Z,5.22
2022-10-04T03:58:04.851Z,5.32
2022-10-04T04:00:37.441Z,5.20
2022-10-04T04:03:10.977Z,4.97
2022-10-04T04:05:45.341Z,4.75
2022-10-04T04:08:25.658Z,5.07
2022-10-04T04:10:57.458Z,5.07
2022-10-04T04:13:32.348Z,4.88
2022-10-04T04:16:03.528Z,4.72
2022-10-04T04:18:34.505Z,4.47
2022-10-04T04:21:08.621Z,4.65
2022-10-04T04:23:40.798Z,4.50
2022-10-04T04:26:17.187Z,5.22
2022-10-04T04:28:51.534Z,5.32
2022-10-04T04:31:24.618Z,4.57
2022-10-04T04:34:00.460Z,4.72
2022-10-04T04:36:33.427Z,4.50
2022-10-04T04:39:27.381Z,4.75
2022-10-04T04:41:56.218Z,4.80
2022-10-04T04:44:27.205Z,4.80
2022-10-04T04:46:57.219Z,4.68
2022-10-04T04:49:27.690Z,5.18
2022-10-04T04:51:59.219Z,5.32
2022-10-04T04:54:30.824Z,5.63
2022-10-04T04:57:02.463Z,5.53
2022-10-04T04:59:32.378Z,5.50
2022-10-04T05:02:00.857Z,5.18
2022-10-04T05:04:29.436Z,4.57
2022-10-04T05:07:05.288Z,4.50
2022-10-04T05:09:35.631Z,4.82
2022-10-04T05:12:09.855Z,4.35
2022-10-04T05:14:46.639Z,4.18
2022-10-04T05:17:22.708Z,4.25
2022-10-04T05:19:53.899Z,4.05
2022-10-04T05:22:25.145Z,4.00
2022-10-04T05:24:56.572Z,3.70
2022-10-04T05:27:30.315Z,3.95
2022-10-04T05:30:06.832Z,3.95
2022-10-04T05:32:48.898Z,4.00
2022-10-04T05:35:23.546Z,3.58
2022-10-04T05:38:01.267Z,4.05
2022-10-04T05:40:42.239Z,3.72
2022-10-04T05:43:30.691Z,4.13
2022-10-04T05:46:23.815Z,3.92
2022-10-04T05:49:02.385Z,3.78
2022-10-04T05:51:37.795Z,3.72
2022-10-04T05:54:16.706Z,3.83
2022-10-04T05:57:19.032Z,3.60
2022-10-04T06:00:12.793Z,3.60
2022-10-04T06:03:12.338Z,3.67
2022-10-04T06:05:55.231Z,3.47
2022-10-04T06:08:35.308Z,3.28
2022-10-04T06:11:19.153Z,3.70
2022-10-04T06:14:11.096Z,3.70
2022-10-04T06:16:57.334Z,3.25
2022-10-04T06:19:48.580Z,3.40
2022-10-04T06:22:17.875Z,3.72
2022-10-04T06:24:51.400Z,3.42
2022-10-04T06:27:26.372Z,3.53
2022-10-04T06:30:01.535Z,3.40
2022-10-04T06:32:48.335Z,3.92
2022-10-04T06:35:44.575Z,3.55
2022-10-04T06:38:44.768Z,3.60
2022-10-04T06:41:30.637Z,3.63
2022-10-04T06:44:14.899Z,3.45
2022-10-04T06:46:49.726Z,3.90
2022-10-04T06:49:36.037Z,3.47
2022-10-04T06:52:34.876Z,4.55
2022-10-04T06:55:36.283Z,3.72
2022-10-04T06:58:31.124Z,3.50
2022-10-04T07:01:05.478Z,3.75
2022-10-04T07:03:40.894Z,3.38
2022-10-04T07:06:11.372Z,3.40
2022-10-04T07:08:52.231Z,4.00
2022-10-04T07:11:26.924Z,3.40
2022-10-04T07:14:00.531Z,3.40
2022-10-04T07:16:35.524Z,3.30
2022-10-04T07:19:28.433Z,3.58
2022-10-04T07:22:05.895Z,3.30
2022-10-04T07:24:47.516Z,3.63
2022-10-04T07:27:23.700Z,3.53
2022-10-04T07:29:55.390Z,3.70
2022-10-04T07:32:28.545Z,3.78
2022-10-04T07:35:03.924Z,3.58
2022-10-04T07:37:37.974Z,4.53
2022-10-04T07:40:21.069Z,3.78
2022-10-04T07:42:58.353Z,3.55
2022-10-04T07:45:32.800Z,3.10
2022-10-04T07:48:11.194Z,3.20
2022-10-04T07:50:47.573Z,3.33
2022-10-04T07:53:22.689Z,3.50
2022-10-04T07:56:04.700Z,3.60
2022-10-04T07:58:46.231Z,3.40
2022-10-04T08:01:31.762Z,3.20
2022-10-04T08:04:19.532Z,3.20
2022-10-04T08:06:58.463Z,3.10
2022-10-04T08:09:38.824Z,2.83
2022-10-04T08:12:19.568Z,3.10
2022-10-04T08:14:57.350Z,2.80
2022-10-04T08:17:49.842Z,3.00
2022-10-04T08:20:34.789Z,3.15
2022-10-04T08:23:32.839Z,2.67
2022-10-04T08:26:14.484Z,2.63
2022-10-04T08:29:18.832Z,2.95
2022-10-04T08:32:05.425Z,2.70
2022-10-04T08:35:02.102Z,3.00
2022-10-04T08:37:39.981Z,2.60
2022-10-04T08:40:55.271Z,2.95
2022-10-04T08:44:06.228Z,2.50
2022-10-04T08:47:09.180Z,2.60
2022-10-04T08:50:24.833Z,2.67
2022-10-04T08:53:27.602Z,2.75
2022-10-04T08:56:11.430Z,2.50
2022-10-04T08:59:22.100Z,2.53
2022-10-04T09:02:19.409Z,2.97
2022-10-04T09:05:27.547Z,2.80
2022-10-04T09:08:26.373Z,2.92
2022-10-04T09:11:27.237Z,2.88
2022-10-04T09:14:20.602Z,3.58
2022-10-04T09:16:52.618Z,2.80
2022-10-04T09:19:23.597Z,2.60
2022-10-04T09:22:17.729Z,2.50
2022-10-04T09:25:22.907Z,2.50
2022-10-04T09:28:10.920Z,2.60
2022-10-04T09:30:54.742Z,2.45
2022-10-04T09:34:09.853Z,2.50
2022-10-04T09:36:58.717Z,2.50
2022-10-04T09:40:04.336Z,2.50
2022-10-04T09:43:05.605Z,2.65
2022-10-04T09:45:56.048Z,2.53
2022-10-04T09:48:37.151Z,2.47
2022-10-04T09:51:31.789Z,2.50
2022-10-04T09:54:17.538Z,2.30
2022-10-04T09:57:15.336Z,2.35
2022-10-04T10:00:23.547Z,2.42
2022-10-04T10:03:23.071Z,1.90
2022-10-04T10:06:32.264Z,2.25
2022-10-04T10:09:11.777Z,2.20
2022-10-04T10:12:05.468Z,2.20
2022-10-04T10:15:04.313Z,2.20
2022-10-04T10:17:41.962Z,2.33
2022-10-04T10:20:37.539Z,2.40
2022-10-04T10:23:44.052Z,2.72
2022-10-04T10:26:43.073Z,2.40
2022-10-04T10:29:48.037Z,2.20
2022-10-04T10:32:46.106Z,2.50
2022-10-04T10:35:36.614Z,2.30
2022-10-04T10:38:29.713Z,2.30
2022-10-04T10:41:26.203Z,2.40
2022-10-04T10:44:21.413Z,3.10
2022-10-04T10:47:07.908Z,2.38
2022-10-04T10:49:58.079Z,2.65
2022-10-04T10:53:05.126Z,2.42
2022-10-04T10:56:29.262Z,2.50
2022-10-04T10:59:32.450Z,2.25
2022-10-04T11:02:48.970Z,2.30
2022-10-04T11:06:00.217Z,2.50
2022-10-04T11:08:57.161Z,2.50
2022-10-04T11:11:45.596Z,2.15
2022-10-04T11:14:47.718Z,2.20
2022-10-04T11:17:34.113Z,2.15
2022-10-04T11:20:33.000Z,2.20
2022-10-04T11:23:43.347Z,2.30
2022-10-04T11:26:46.871Z,2.00
2022-10-04T11:29:46.554Z,2.15
2022-10-04T11:33:12.185Z,1.77
2022-10-04T11:36:13.234Z,2.42
2022-10-04T11:39:15.357Z,2.00
2022-10-04T11:41:57.987Z,2.22
2022-10-04T11:45:10.043Z,2.05
2022-10-04T11:47:52.035Z,2.10
2022-10-04T11:50:39.838Z,2.08
2022-10-04T11:53:43.925Z,1.80
2022-10-04T11:56:25.023Z,2.00
2022-10-04T11:59:09.798Z,2.57
2022-10-04T12:02:17.366Z,2.10
2022-10-04T12:05:08.790Z,1.85
2022-10-04T12:07:54.762Z,1.80
2022-10-04T12:10:29.926Z,1.90
2022-10-04T12:13:30.832Z,1.50
2022-10-04T12:16:30.090Z,1.85
2022-10-04T12:19:39.770Z,2.10
2022-10-04T12:22:40.264Z,1.90
2022-10-04T12:25:46.335Z,1.92
2022-10-04T12:28:36.525Z,2.20
2022-10-04T12:31:23.202Z,2.10
2022-10-04T12:34:01.609Z,1.92
2022-10-04T12:36:46.385Z,1.90
2022-10-04T12:39:43.748Z,2.10
2022-10-04T12:42:30.419Z,2.30
2022-10-04T12:45:17.889Z,2.30
2022-10-04T12:48:24.260Z,2.00
2022-10-04T12:51:02.903Z,1.90
2022-10-04T12:53:45.427Z,1.80
2022-10-04T12:56:24.832Z,2.00
2022-10-04T12:59:15.768Z,1.60
2022-10-04T13:01:57.773Z,1.80
2022-10-04T13:04:39.019Z,1.60
2022-10-04T13:07:34.758Z,1.83
2022-10-04T13:10:26.078Z,1.67
2022-10-04T13:13:33.198Z,1.95
2022-10-04T13:19:11.218Z,1.70
2022-10-04T13:22:08.151Z,1.70
2022-10-04T13:24:56.390Z,1.70
2022-10-04T13:27:32.485Z,1.77
2022-10-04T13:30:23.437Z,1.70
2022-10-04T13:33:05.974Z,1.60
2022-10-04T13:35:42.028Z,1.50
2022-10-04T13:38:28.984Z,1.80
2022-10-04T13:41:14.373Z,1.70
2022-10-04T13:44:08.363Z,1.80
2022-10-04T13:46:50.485Z,1.83
2022-10-04T13:49:31.678Z,1.70
2022-10-04T13:52:38.291Z,1.90
2022-10-04T13:55:38.924Z,1.75
2022-10-04T13:58:20.838Z,1.60
2022-10-04T14:01:23.588Z,1.73
2022-10-04T14:04:09.277Z,1.60
2022-10-04T14:07:16.799Z,1.65
2022-10-04T14:10:02.780Z,1.50
2022-10-04T14:13:06.625Z,1.60
2022-10-04T14:16:02.922Z,1.60
2022-10-04T14:19:01.339Z,1.70
2022-10-04T14:22:11.807Z,1.55
2022-10-04T14:25:29.865Z,1.67
2022-10-04T14:28:33.477Z,1.50
2022-10-04T14:31:21.629Z,1.60
2022-10-04T14:34:20.955Z,1.70
2022-10-04T14:37:19.414Z,1.80
2022-10-04T14:40:20.995Z,1.70
2022-10-04T14:43:17.414Z,1.60
2022-10-04T14:46:14.406Z,1.70
2022-10-04T14:48:55.596Z,1.70
2022-10-04T14:51:53.162Z,1.70
2022-10-04T14:54:38.992Z,1.92
2022-10-04T14:57:21.008Z,1.70
2022-10-04T15:00:06.864Z,1.90
2022-10-04T15:03:06.082Z,1.90
2022-10-04T15:06:00.153Z,1.83
2022-10-04T15:08:57.273Z,1.98
2022-10-04T15:11:40.627Z,2.20
2022-10-04T15:14:35.753Z,1.80
2022-10-04T15:17:11.217Z,2.00
2022-10-04T15:19:59.506Z,1.88
2022-10-04T15:22:31.370Z,1.88
2022-10-04T15:25:00.368Z,1.90
2022-10-04T15:27:52.924Z,1.95
2022-10-04T15:30:35.763Z,2.00
2022-10-04T15:33:27.827Z,2.05
2022-10-04T15:36:30.649Z,1.88
2022-10-04T15:39:05.353Z,1.95
2022-10-04T15:41:45.142Z,1.90
2022-10-04T15:44:46.516Z,2.10
2022-10-04T15:47:24.123Z,2.10
2022-10-04T15:50:12.766Z,3.10
2022-10-04T15:53:23.580Z,3.28
2022-10-04T15:56:15.119Z,2.20
2022-10-04T15:59:05.800Z,2.10
2022-10-04T16:01:55.410Z,2.33
2022-10-04T16:04:46.860Z,2.42
2022-10-04T16:07:42.599Z,2.35
2022-10-04T16:10:26.692Z,2.30
2022-10-04T16:13:22.863Z,2.30
2022-10-04T16:16:44.213Z,2.50
2022-10-04T16:19:30.431Z,2.40
2022-10-04T16:22:20.370Z,2.40
2022-10-04T16:24:54.550Z,2.42
2022-10-04T16:28:08.882Z,2.70
2022-10-04T16:30:44.832Z,2.70
2022-10-04T16:33:31.244Z,2.38
2022-10-04T16:36:14.534Z,2.90
2022-10-04T16:39:11.915Z,2.90
2022-10-04T16:41:44.516Z,3.25
2022-10-04T16:44:32.800Z,3.85
2022-10-04T16:47:04.441Z,4.20
2022-10-04T16:49:41.873Z,4.57
2022-10-04T16:52:36.954Z,4.40
2022-10-04T16:55:38.016Z,4.57
2022-10-04T16:58:50.059Z,4.22
2022-10-04T17:02:01.502Z,4.30
2022-10-04T17:05:02.389Z,4.40
2022-10-04T17:08:16.724Z,4.63
2022-10-04T17:11:14.923Z,4.80
2022-10-04T17:13:56.950Z,7.22
2022-10-04T17:16:35.238Z,6.30
2022-10-04T17:19:28.175Z,6.25
2022-10-04T17:22:11.223Z,6.45
2022-10-04T17:24:55.679Z,6.45
2022-10-04T17:27:47.521Z,5.90
2022-10-04T17:30:21.894Z,6.35
2022-10-04T17:33:25.552Z,5.82
2022-10-04T17:36:19.222Z,5.95
2022-10-04T17:39:05.110Z,5.80
2022-10-04T17:41:53.536Z,5.40
2022-10-04T17:44:34.362Z,5.50
2022-10-04T17:47:14.522Z,6.10
2022-10-04T17:50:20.944Z,6.43
2022-10-04T17:53:18.590Z,6.05
2022-10-04T17:55:50.714Z,6.25
2022-10-04T17:58:24.323Z,6.93
2022-10-04T18:01:06.117Z,6.50
2022-10-04T18:03:41.970Z,6.60
2022-10-04T18:06:22.689Z,6.90
2022-10-04T18:08:58.773Z,6.70
2022-10-04T18:11:43.870Z,6.68
2022-10-04T18:14:39.536Z,7.93
2022-10-04T18:17:14.688Z,8.30
2022-10-04T18:20:00.854Z,8.38
2022-10-04T18:22:48.175Z,8.93
2022-10-04T18:25:26.188Z,8.75
2022-10-04T18:28:07.132Z,9.95
2022-10-04T18:30:52.288Z,10.82
2022-10-04T18:33:26.839Z,15.38
2022-10-04T18:36:04.822Z,16.80
2022-10-04T18:38:36.728Z,14.32
2022-10-04T18:43:54.812Z,14.18
2022-10-04T18:46:27.085Z,14.75
2022-10-04T18:49:18.572Z,14.68
2022-10-04T18:51:59.600Z,13.70
2022-10-04T18:54:46.804Z,12.50
2022-10-04T18:57:29.678Z,12.65
2022-10-04T19:00:28.779Z,12.38
2022-10-04T19:03:06.976Z,12.27
2022-10-04T19:05:52.244Z,13.40
2022-10-04T19:08:37.198Z,15.27
2022-10-04T19:11:11.702Z,14.38
2022-10-04T19:13:49.829Z,14.35
2022-10-04T19:16:46.184Z,15.00
2022-10-04T19:19:43.324Z,13.75
2022-10-04T19:22:28.307Z,14.85
2022-10-04T19:25:27.682Z,13.48
2022-10-04T19:28:01.800Z,13.55
2022-10-04T19:30:48.294Z,13.23
2022-10-04T19:33:29.583Z,13.60
2022-10-04T19:36:34.083Z,12.02
2022-10-04T19:39:22.204Z,11.98
2022-10-04T19:42:00.484Z,13.02
2022-10-04T19:44:41.097Z,13.20
2022-10-04T19:47:28.930Z,12.57
2022-10-04T19:50:09.287Z,12.95
2022-10-04T19:52:44.496Z,13.93
2022-10-04T19:55:23.342Z,14.90
2022-10-04T19:57:56.407Z,14.65
2022-10-04T20:00:28.979Z,15.65
2022-10-04T20:02:59.008Z,16.08
2022-10-04T20:05:31.344Z,15.18
2022-10-04T20:08:05.001Z,14.43
2022-10-04T20:10:40.305Z,14.30
2022-10-04T20:13:27.389Z,14.35
2022-10-04T20:16:00.666Z,14.88
2022-10-04T20:19:05.113Z,14.85
2022-10-04T20:21:34.549Z,14.25
2022-10-04T20:24:03.706Z,14.10
2022-10-04T20:26:55.022Z,14.20
2022-10-04T20:30:04.741Z,14.82
2022-10-04T20:33:09.888Z,15.73
2022-10-04T20:36:02.969Z,14.85
2022-10-04T20:38:54.743Z,15.50
2022-10-04T20:42:05.034Z,16.85
2022-10-04T20:44:54.311Z,16.27
2022-10-04T20:47:31.779Z,16.35
2022-10-04T20:50:01.932Z,16.63
2022-10-04T20:52:38.166Z,16.55
2022-10-04T20:55:19.357Z,17.42
2022-10-04T20:57:51.083Z,16.17
2022-10-04T21:00:27.977Z,16.23
2022-10-04T21:03:17.755Z,16.33
2022-10-04T21:06:02.289Z,16.13
2022-10-04T21:08:32.548Z,16.75
2022-10-04T21:11:18.316Z,17.67
2022-10-04T21:14:02.148Z,17.40
2022-10-04T21:16:52.511Z,18.27
2022-10-04T21:19:33.098Z,18.48
2022-10-04T21:22:09.158Z,21.08
2022-10-04T21:24:43.483Z,19.50
2022-10-04T21:27:16.717Z,19.50
2022-10-04T21:29:55.331Z,18.88
2022-10-04T21:32:36.767Z,18.15
2022-10-04T21:35:08.441Z,18.15
2022-10-04T21:37:39.579Z,16.95
2022-10-04T21:40:11.441Z,17.97
2022-10-04T21:42:42.001Z,17.70
2022-10-04T21:45:17.005Z,17.55
2022-10-04T21:47:47.355Z,16.08
2022-10-04T21:50:19.305Z,16.63
2022-10-04T21:52:51.026Z,16.70
2022-10-04T21:55:19.289Z,16.38
2022-10-04T21:57:51.342Z,15.35
2022-10-04T22:00:23.197Z,15.70
2022-10-04T22:02:53.959Z,15.13
2022-10-04T22:05:24.381Z,16.85
2022-10-04T22:07:55.167Z,16.33
2022-10-04T22:10:25.520Z,18.27
2022-10-04T22:12:57.225Z,18.30
2022-10-04T22:17:57.262Z,17.55
2022-10-04T22:20:30.211Z,17.65
2022-10-04T22:23:00.537Z,18.77
2022-10-04T22:25:37.343Z,20.85
2022-10-04T22:28:20.210Z,21.65
2022-10-04T22:30:52.229Z,20.38
2022-10-04T22:33:38.223Z,19.55
2022-10-04T22:36:19.095Z,19.65
2022-10-04T22:38:51.275Z,19.50
2022-10-04T22:41:21.694Z,19.83
2022-10-04T22:43:55.432Z,18.50
2022-10-04T22:46:35.998Z,17.55
2022-10-04T22:49:11.890Z,18.02
2022-10-04T22:51:57.817Z,17.15
2022-10-04T22:54:33.547Z,18.60
2022-10-04T22:57:04.727Z,19.25
2022-10-04T22:59:37.881Z,17.58
2022-10-04T23:02:15.007Z,18.23
2022-10-04T23:04:47.155Z,19.27
2022-10-04T23:07:17.721Z,17.58
2022-10-04T23:09:49.189Z,17.50
2022-10-04T23:12:18.945Z,17.23
2022-10-04T23:14:48.894Z,18.10
2022-10-04T23:17:28.348Z,19.00
2022-10-04T23:20:02.757Z,20.25
2022-10-04T23:22:32.587Z,21.42
2022-10-04T23:25:01.701Z,22.00
2022-10-04T23:27:30.609Z,21.92
2022-10-04T23:30:04.043Z,21.95
2022-10-04T23:32:34.490Z,21.85
2022-10-04T23:35:06.249Z,21.50
2022-10-04T23:37:41.507Z,22.08
2022-10-04T23:40:19.171Z,21.77
2022-10-04T23:42:49.603Z,21.30
2022-10-04T23:45:25.245Z,23.38
2022-10-04T23:47:58.484Z,23.85
2022-10-04T23:50:32.557Z,24.38
2022-10-04T23:53:12.715Z,22.60
2022-10-04T23:55:43.257Z,24.05
2022-10-04T23:58:15.762Z,22.77
